sensor_id;sensor_type;location;lat;lon;timestamp;P1;durP1;ratioP1;P2;durP2;ratioP2
6527;SDS011;64597;42.664;23.256;2024-03-07T01:40:02;11.02;;;6.85;;
6527;SDS011;64597;42.664;23.256;2024-03-07T01:42:35;14.25;;;6.90;;
6527;SDS011;64597;42.664;23.256;2024-03-07T01:45:13;10.65;;;7.40;;
6527;SDS011;64597;42.664;23.256;2024-03-07T01:47:52;11.77;;;6.78;;
6527;SDS011;64597;42.664;23.256;2024-03-07T01:51:10;10.85;;;6.38;;
6527;SDS011;64597;42.664;23.256;2024-03-07T01:53:42;11.35;;;6.13;;
6527;SDS011;64597;42.664;23.256;2024-03-07T01:56:11;12.50;;;7.20;;
6527;SDS011;64597;42.664;23.256;2024-03-07T02:23:04;2.80;;;1.85;;
6527;SDS011;64597;42.664;23.256;2024-03-07T02:25:45;2.08;;;1.02;;
6527;SDS011;64597;42.664;23.256;2024-03-07T02:28:16;2.28;;;1.10;;
6527;SDS011;64597;42.664;23.256;2024-03-07T02:30:52;1.60;;;0.68;;
6527;SDS011;64597;42.664;23.256;2024-03-07T02:33:30;1.40;;;0.80;;
6527;SDS011;64597;42.664;23.256;2024-03-07T03:17:26;2.30;;;0.98;;
6527;SDS011;64597;42.664;23.256;2024-03-07T03:19:52;3.78;;;1.65;;
6527;SDS011;64597;42.664;23.256;2024-03-07T03:22:53;4.45;;;1.50;;
6527;SDS011;64597;42.664;23.256;2024-03-07T03:25:25;3.50;;;1.73;;
6527;SDS011;64597;42.664;23.256;2024-03-07T03:27:58;5.30;;;2.78;;
6527;SDS011;64597;42.664;23.256;2024-03-07T03:30:31;6.05;;;3.42;;
6527;SDS011;64597;42.664;23.256;2024-03-07T03:33:10;7.43;;;3.65;;
6527;SDS011;64597;42.664;23.256;2024-03-07T03:35:47;5.63;;;3.13;;
6527;SDS011;64597;42.664;23.256;2024-03-07T03:47:05;4.03;;;2.38;;
6527;SDS011;64597;42.664;23.256;2024-03-07T03:49:47;5.43;;;3.00;;
6527;SDS011;64597;42.664;23.256;2024-03-07T03:55:51;3.78;;;2.25;;
6527;SDS011;64597;42.664;23.256;2024-03-07T03:58:21;5.57;;;3.00;;
6527;SDS011;64597;42.664;23.256;2024-03-07T04:00:51;6.97;;;2.97;;
6527;SDS011;64597;42.664;23.256;2024-03-07T04:03:31;4.47;;;2.97;;
6527;SDS011;64597;42.664;23.256;2024-03-07T04:45:38;5.22;;;3.22;;
6527;SDS011;64597;42.664;23.256;2024-03-07T04:48:21;5.88;;;3.53;;
6527;SDS011;64597;42.664;23.256;2024-03-07T04:51:36;6.05;;;3.70;;
6527;SDS011;64597;42.664;23.256;2024-03-07T04:54:22;6.70;;;3.60;;
6527;SDS011;64597;42.664;23.256;2024-03-07T04:56:54;6.13;;;3.35;;
6527;SDS011;64597;42.664;23.256;2024-03-07T04:59:24;6.72;;;3.90;;
6527;SDS011;64597;42.664;23.256;2024-03-07T05:01:50;6.20;;;3.67;;
6527;SDS011;64597;42.664;23.256;2024-03-07T05:04:16;5.80;;;3.70;;
6527;SDS011;64597;42.664;23.256;2024-03-07T05:06:49;6.10;;;3.22;;
6527;SDS011;64597;42.664;23.256;2024-03-07T05:09:14;5.13;;;2.53;;
6527;SDS011;64597;42.664;23.256;2024-03-07T05:11:48;5.32;;;2.80;;
6527;SDS011;64597;42.664;23.256;2024-03-07T05:14:18;4.25;;;2.35;;
6527;SDS011;64597;42.664;23.256;2024-03-07T05:16:52;4.80;;;2.97;;
6527;SDS011;64597;42.664;23.256;2024-03-07T05:19:34;4.22;;;2.15;;
6527;SDS011;64597;42.664;23.256;2024-03-07T05:22:09;1.98;;;1.33;;
6527;SDS011;64597;42.664;23.256;2024-03-07T05:24:56;1.65;;;0.98;;
6527;SDS011;64597;42.664;23.256;2024-03-07T05:27:30;2.70;;;1.45;;
6527;SDS011;64597;42.664;23.256;2024-03-07T05:29:56;3.17;;;1.10;;
6527;SDS011;64597;42.664;23.256;2024-03-07T05:32:23;1.33;;;0.88;;
6527;SDS011;64597;42.664;23.256;2024-03-07T05:34:59;0.85;;;0.75;;
6527;SDS011;64597;42.664;23.256;2024-03-07T05:45:42;2.05;;;1.27;;
6527;SDS011;64597;42.664;23.256;2024-03-07T05:48:15;1.70;;;1.00;;
6527;SDS011;64597;42.664;23.256;2024-03-07T05:51:01;1.63;;;0.80;;
6527;SDS011;64597;42.664;23.256;2024-03-07T05:57:28;2.10;;;0.90;;
6527;SDS011;64597;42.664;23.256;2024-03-07T05:59:56;2.33;;;0.73;;
6527;SDS011;64597;42.664;23.256;2024-03-07T06:02:22;1.30;;;0.75;;
6527;SDS011;64597;42.664;23.256;2024-03-07T06:04:52;5.35;;;2.03;;
6527;SDS011;64597;42.664;23.256;2024-03-07T06:07:56;2.40;;;1.75;;
6527;SDS011;64597;42.664;23.256;2024-03-07T06:10:33;2.40;;;1.10;;
6527;SDS011;64597;42.664;23.256;2024-03-07T06:13:16;1.25;;;0.88;;
6527;SDS011;64597;42.664;23.256;2024-03-07T06:15:51;2.33;;;0.77;;
6527;SDS011;64597;42.664;23.256;2024-03-07T06:18:36;1.70;;;0.90;;
6527;SDS011;64597;42.664;23.256;2024-03-07T06:21:18;1.73;;;1.05;;
6527;SDS011;64597;42.664;23.256;2024-03-07T06:24:15;1.23;;;0.90;;
6527;SDS011;64597;42.664;23.256;2024-03-07T06:26:51;1.73;;;1.00;;
6527;SDS011;64597;42.664;23.256;2024-03-07T06:29:41;3.47;;;2.20;;
6527;SDS011;64597;42.664;23.256;2024-03-07T06:32:06;3.25;;;1.65;;
6527;SDS011;64597;42.664;23.256;2024-03-07T06:34:34;5.65;;;2.70;;
6527;SDS011;64597;42.664;23.256;2024-03-07T06:37:16;3.50;;;2.00;;
6527;SDS011;64597;42.664;23.256;2024-03-07T06:40:41;2.55;;;1.80;;
6527;SDS011;64597;42.664;23.256;2024-03-07T06:43:23;2.05;;;1.55;;
6527;SDS011;64597;42.664;23.256;2024-03-07T06:46:52;2.28;;;1.48;;
6527;SDS011;64597;42.664;23.256;2024-03-07T06:50:18;1.50;;;1.10;;
6527;SDS011;64597;42.664;23.256;2024-03-07T06:53:36;1.75;;;1.25;;
6527;SDS011;64597;42.664;23.256;2024-03-07T07:06:12;1.67;;;1.30;;
6527;SDS011;64597;42.664;23.256;2024-03-07T07:08:38;2.55;;;1.63;;
6527;SDS011;64597;42.664;23.256;2024-03-07T07:11:05;3.63;;;2.00;;
6527;SDS011;64597;42.664;23.256;2024-03-07T07:13:32;2.45;;;1.75;;
6527;SDS011;64597;42.664;23.256;2024-03-07T07:16:09;3.25;;;1.70;;
6527;SDS011;64597;42.664;23.256;2024-03-07T07:19:22;1.63;;;1.35;;
6527;SDS011;64597;42.664;23.256;2024-03-07T07:21:48;2.78;;;1.48;;
6527;SDS011;64597;42.664;23.256;2024-03-07T07:24:25;3.22;;;2.25;;
6527;SDS011;64597;42.664;23.256;2024-03-07T07:26:50;4.43;;;2.45;;
6527;SDS011;64597;42.664;23.256;2024-03-07T07:29:16;4.13;;;2.10;;
6527;SDS011;64597;42.664;23.256;2024-03-07T07:31:42;2.85;;;1.98;;
6527;SDS011;64597;42.664;23.256;2024-03-07T07:34:07;4.97;;;1.75;;
6527;SDS011;64597;42.664;23.256;2024-03-07T07:36:33;2.05;;;1.45;;
6527;SDS011;64597;42.664;23.256;2024-03-07T07:39:10;2.58;;;2.03;;
6527;SDS011;64597;42.664;23.256;2024-03-07T07:52:29;3.60;;;1.90;;
6527;SDS011;64597;42.664;23.256;2024-03-07T07:55:03;4.03;;;2.17;;
6527;SDS011;64597;42.664;23.256;2024-03-07T07:57:55;5.32;;;2.80;;
6527;SDS011;64597;42.664;23.256;2024-03-07T08:01:11;3.40;;;2.15;;
6527;SDS011;64597;42.664;23.256;2024-03-07T08:04:00;3.97;;;2.60;;
6527;SDS011;64597;42.664;23.256;2024-03-07T08:19:31;6.82;;;3.55;;
6527;SDS011;64597;42.664;23.256;2024-03-07T08:24:32;5.43;;;3.88;;
6527;SDS011;64597;42.664;23.256;2024-03-07T08:26:57;5.35;;;3.33;;
6527;SDS011;64597;42.664;23.256;2024-03-07T08:29:23;4.57;;;2.85;;
6527;SDS011;64597;42.664;23.256;2024-03-07T08:31:49;5.95;;;3.42;;
6527;SDS011;64597;42.664;23.256;2024-03-07T08:34:14;4.95;;;3.40;;
6527;SDS011;64597;42.664;23.256;2024-03-07T08:36:40;5.57;;;3.83;;
6527;SDS011;64597;42.664;23.256;2024-03-07T08:39:13;5.53;;;3.80;;
6527;SDS011;64597;42.664;23.256;2024-03-07T08:41:39;6.63;;;3.50;;
6527;SDS011;64597;42.664;23.256;2024-03-07T08:44:06;4.78;;;3.25;;
6527;SDS011;64597;42.664;23.256;2024-03-07T08:46:36;6.53;;;3.83;;
6527;SDS011;64597;42.664;23.256;2024-03-07T08:49:08;5.68;;;3.70;;
6527;SDS011;64597;42.664;23.256;2024-03-07T08:52:14;6.20;;;3.22;;
6527;SDS011;64597;42.664;23.256;2024-03-07T08:54:40;5.63;;;3.83;;
6527;SDS011;64597;42.664;23.256;2024-03-07T08:57:05;7.43;;;3.83;;
6527;SDS011;64597;42.664;23.256;2024-03-07T08:59:32;5.55;;;3.83;;
6527;SDS011;64597;42.664;23.256;2024-03-07T09:01:58;6.63;;;3.17;;
6527;SDS011;64597;42.664;23.256;2024-03-07T09:04:27;6.65;;;4.00;;
6527;SDS011;64597;42.664;23.256;2024-03-07T09:06:54;7.18;;;4.05;;
6527;SDS011;64597;42.664;23.256;2024-03-07T09:09:27;6.35;;;3.53;;
6527;SDS011;64597;42.664;23.256;2024-03-07T09:12:51;6.85;;;4.05;;
6527;SDS011;64597;42.664;23.256;2024-03-07T09:20:36;5.13;;;3.47;;
6527;SDS011;64597;42.664;23.256;2024-03-07T09:23:14;5.50;;;3.55;;
6527;SDS011;64597;42.664;23.256;2024-03-07T09:26:13;5.43;;;3.35;;
6527;SDS011;64597;42.664;23.256;2024-03-07T09:28:38;5.13;;;3.35;;
6527;SDS011;64597;42.664;23.256;2024-03-07T09:31:04;5.43;;;3.17;;
6527;SDS011;64597;42.664;23.256;2024-03-07T09:33:30;6.97;;;4.07;;
6527;SDS011;64597;42.664;23.256;2024-03-07T09:46:16;5.57;;;4.57;;
6527;SDS011;64597;42.664;23.256;2024-03-07T09:48:43;6.63;;;4.85;;
6527;SDS011;64597;42.664;23.256;2024-03-07T09:51:10;5.60;;;4.45;;
6527;SDS011;64597;42.664;23.256;2024-03-07T09:53:49;10.15;;;4.63;;
6527;SDS011;64597;42.664;23.256;2024-03-07T09:56:20;5.82;;;4.30;;
6527;SDS011;64597;42.664;23.256;2024-03-07T09:58:51;6.13;;;4.05;;
6527;SDS011;64597;42.664;23.256;2024-03-07T10:07:17;5.97;;;3.92;;
6527;SDS011;64597;42.664;23.256;2024-03-07T10:10:07;4.78;;;3.28;;
6527;SDS011;64597;42.664;23.256;2024-03-07T10:15:36;6.93;;;3.72;;
6527;SDS011;64597;42.664;23.256;2024-03-07T10:21:59;6.32;;;3.17;;
6527;SDS011;64597;42.664;23.256;2024-03-07T10:24:27;3.90;;;3.25;;
6527;SDS011;64597;42.664;23.256;2024-03-07T10:26:58;8.70;;;3.58;;
6527;SDS011;64597;42.664;23.256;2024-03-07T10:29:25;5.10;;;3.72;;
6527;SDS011;64597;42.664;23.256;2024-03-07T10:31:51;6.60;;;3.65;;
6527;SDS011;64597;42.664;23.256;2024-03-07T10:34:18;5.50;;;3.50;;
6527;SDS011;64597;42.664;23.256;2024-03-07T10:36:48;7.45;;;3.65;;
6527;SDS011;64597;42.664;23.256;2024-03-07T10:39:18;4.55;;;3.45;;
6527;SDS011;64597;42.664;23.256;2024-03-07T10:42:03;7.60;;;3.38;;
6527;SDS011;64597;42.664;23.256;2024-03-07T10:45:18;7.72;;;3.88;;
6527;SDS011;64597;42.664;23.256;2024-03-07T10:47:47;6.20;;;3.75;;
6527;SDS011;64597;42.664;23.256;2024-03-07T10:50:24;5.30;;;3.92;;
6527;SDS011;64597;42.664;23.256;2024-03-07T10:53:04;7.50;;;4.13;;
6527;SDS011;64597;42.664;23.256;2024-03-07T10:58:16;7.22;;;4.50;;
6527;SDS011;64597;42.664;23.256;2024-03-07T11:01:10;6.07;;;4.18;;
6527;SDS011;64597;42.664;23.256;2024-03-07T11:03:38;7.03;;;3.63;;
6527;SDS011;64597;42.664;23.256;2024-03-07T11:06:05;6.60;;;4.68;;
6527;SDS011;64597;42.664;23.256;2024-03-07T11:08:36;6.30;;;3.72;;
6527;SDS011;64597;42.664;23.256;2024-03-07T11:11:03;5.78;;;4.35;;
6527;SDS011;64597;42.664;23.256;2024-03-07T11:13:30;4.68;;;4.03;;
6527;SDS011;64597;42.664;23.256;2024-03-07T11:15:56;7.47;;;4.35;;
6527;SDS011;64597;42.664;23.256;2024-03-07T11:20:51;5.13;;;3.47;;
6527;SDS011;64597;42.664;23.256;2024-03-07T11:23:30;5.97;;;3.90;;
6527;SDS011;64597;42.664;23.256;2024-03-07T11:26:02;12.20;;;4.63;;
6527;SDS011;64597;42.664;23.256;2024-03-07T11:28:32;6.20;;;3.53;;
6527;SDS011;64597;42.664;23.256;2024-03-07T11:31:15;4.50;;;3.72;;
6527;SDS011;64597;42.664;23.256;2024-03-07T11:36:42;6.55;;;3.83;;
6527;SDS011;64597;42.664;23.256;2024-03-07T11:42:26;3.95;;;2.63;;
6527;SDS011;64597;42.664;23.256;2024-03-07T11:44:57;4.50;;;3.03;;
6527;SDS011;64597;42.664;23.256;2024-03-07T11:47:23;5.03;;;2.60;;
6527;SDS011;64597;42.664;23.256;2024-03-07T11:49:52;6.50;;;2.90;;
6527;SDS011;64597;42.664;23.256;2024-03-07T11:52:18;6.45;;;2.38;;
6527;SDS011;64597;42.664;23.256;2024-03-07T11:54:44;4.47;;;2.40;;
6527;SDS011;64597;42.664;23.256;2024-03-07T11:57:16;3.55;;;2.00;;
6527;SDS011;64597;42.664;23.256;2024-03-07T11:59:44;3.20;;;2.30;;
6527;SDS011;64597;42.664;23.256;2024-03-07T12:02:13;4.80;;;2.88;;
6527;SDS011;64597;42.664;23.256;2024-03-07T12:04:46;12.27;;;2.72;;
6527;SDS011;64597;42.664;23.256;2024-03-07T12:07:12;4.03;;;2.60;;
6527;SDS011;64597;42.664;23.256;2024-03-07T12:09:38;3.72;;;2.67;;
6527;SDS011;64597;42.664;23.256;2024-03-07T12:12:05;4.35;;;2.53;;
6527;SDS011;64597;42.664;23.256;2024-03-07T12:14:31;5.28;;;2.60;;
6527;SDS011;64597;42.664;23.256;2024-03-07T12:16:59;4.55;;;2.17;;
6527;SDS011;64597;42.664;23.256;2024-03-07T12:19:25;2.50;;;2.05;;
6527;SDS011;64597;42.664;23.256;2024-03-07T12:21:56;6.53;;;2.90;;
6527;SDS011;64597;42.664;23.256;2024-03-07T12:24:21;7.07;;;2.75;;
6527;SDS011;64597;42.664;23.256;2024-03-07T12:26:47;4.10;;;2.45;;
6527;SDS011;64597;42.664;23.256;2024-03-07T12:29:12;4.68;;;2.47;;
6527;SDS011;64597;42.664;23.256;2024-03-07T12:31:43;3.28;;;2.70;;
6527;SDS011;64597;42.664;23.256;2024-03-07T12:34:18;7.10;;;2.60;;
6527;SDS011;64597;42.664;23.256;2024-03-07T12:36:44;3.65;;;2.22;;
6527;SDS011;64597;42.664;23.256;2024-03-07T12:39:23;4.97;;;2.85;;
6527;SDS011;64597;42.664;23.256;2024-03-07T12:41:58;3.80;;;2.40;;
6527;SDS011;64597;42.664;23.256;2024-03-07T12:44:23;7.53;;;2.80;;
6527;SDS011;64597;42.664;23.256;2024-03-07T12:46:56;4.43;;;2.70;;
6527;SDS011;64597;42.664;23.256;2024-03-07T12:49:44;7.65;;;2.90;;
6527;SDS011;64597;42.664;23.256;2024-03-07T12:52:11;3.58;;;1.95;;
6527;SDS011;64597;42.664;23.256;2024-03-07T12:54:40;3.75;;;2.72;;
6527;SDS011;64597;42.664;23.256;2024-03-07T12:57:15;4.63;;;2.28;;
6527;SDS011;64597;42.664;23.256;2024-03-07T12:59:43;4.30;;;2.70;;
6527;SDS011;64597;42.664;23.256;2024-03-07T13:02:11;4.82;;;3.10;;
6527;SDS011;64597;42.664;23.256;2024-03-07T13:04:41;6.00;;;3.10;;
6527;SDS011;64597;42.664;23.256;2024-03-07T13:07:15;4.53;;;2.38;;
6527;SDS011;64597;42.664;23.256;2024-03-07T13:09:44;4.18;;;2.50;;
6527;SDS011;64597;42.664;23.256;2024-03-07T13:12:13;2.60;;;1.90;;
6527;SDS011;64597;42.664;23.256;2024-03-07T13:14:39;6.18;;;2.63;;
6527;SDS011;64597;42.664;23.256;2024-03-07T13:17:09;5.72;;;3.38;;
6527;SDS011;64597;42.664;23.256;2024-03-07T13:19:34;4.82;;;1.88;;
6527;SDS011;64597;42.664;23.256;2024-03-07T13:22:04;1.92;;;0.80;;
6527;SDS011;64597;42.664;23.256;2024-03-07T13:24:32;4.70;;;1.25;;
6527;SDS011;64597;42.664;23.256;2024-03-07T13:30:13;2.33;;;1.10;;
6527;SDS011;64597;42.664;23.256;2024-03-07T13:32:55;2.28;;;1.35;;
6527;SDS011;64597;42.664;23.256;2024-03-07T13:35:30;3.40;;;1.30;;
6527;SDS011;64597;42.664;23.256;2024-03-07T13:38:10;3.90;;;1.33;;
6527;SDS011;64597;42.664;23.256;2024-03-07T13:40:38;2.33;;;1.63;;
6527;SDS011;64597;42.664;23.256;2024-03-07T13:43:05;3.45;;;1.40;;
6527;SDS011;64597;42.664;23.256;2024-03-07T13:45:32;3.20;;;1.80;;
6527;SDS011;64597;42.664;23.256;2024-03-07T13:48:18;1.90;;;1.30;;
6527;SDS011;64597;42.664;23.256;2024-03-07T13:51:47;4.07;;;1.55;;
6527;SDS011;64597;42.664;23.256;2024-03-07T13:54:37;2.45;;;1.30;;
6527;SDS011;64597;42.664;23.256;2024-03-07T14:02:52;2.45;;;1.30;;
6527;SDS011;64597;42.664;23.256;2024-03-07T14:23:30;3.88;;;1.65;;
6527;SDS011;64597;42.664;23.256;2024-03-07T14:32:29;4.50;;;2.40;;
6527;SDS011;64597;42.664;23.256;2024-03-07T14:41:47;6.35;;;3.10;;
6527;SDS011;64597;42.664;23.256;2024-03-07T14:44:19;6.15;;;3.53;;
6527;SDS011;64597;42.664;23.256;2024-03-07T14:46:47;4.45;;;2.88;;
6527;SDS011;64597;42.664;23.256;2024-03-07T14:52:47;6.28;;;3.92;;
6527;SDS011;64597;42.664;23.256;2024-03-07T14:55:18;5.35;;;3.08;;
6527;SDS011;64597;42.664;23.256;2024-03-07T14:57:54;6.68;;;3.67;;
6527;SDS011;64597;42.664;23.256;2024-03-07T15:00:30;6.63;;;3.33;;
6527;SDS011;64597;42.664;23.256;2024-03-07T15:02:58;8.52;;;5.20;;
6527;SDS011;64597;42.664;23.256;2024-03-07T15:05:27;7.60;;;5.32;;
6527;SDS011;64597;42.664;23.256;2024-03-07T15:08:08;9.27;;;4.70;;
6527;SDS011;64597;42.664;23.256;2024-03-07T15:11:47;8.05;;;3.55;;
6527;SDS011;64597;42.664;23.256;2024-03-07T15:14:20;6.20;;;4.03;;
6527;SDS011;64597;42.664;23.256;2024-03-07T15:53:28;8.23;;;4.70;;
6527;SDS011;64597;42.664;23.256;2024-03-07T15:56:06;8.68;;;4.57;;
6527;SDS011;64597;42.664;23.256;2024-03-07T15:58:39;9.18;;;4.45;;
6527;SDS011;64597;42.664;23.256;2024-03-07T16:01:05;9.55;;;5.03;;
6527;SDS011;64597;42.664;23.256;2024-03-07T16:03:31;8.90;;;5.20;;
6527;SDS011;64597;42.664;23.256;2024-03-07T16:05:56;8.10;;;4.55;;
6527;SDS011;64597;42.664;23.256;2024-03-07T16:08:22;11.38;;;4.95;;
6527;SDS011;64597;42.664;23.256;2024-03-07T16:10:47;10.20;;;4.40;;
6527;SDS011;64597;42.664;23.256;2024-03-07T16:13:15;7.65;;;3.95;;
6527;SDS011;64597;42.664;23.256;2024-03-07T16:15:42;11.75;;;5.38;;
6527;SDS011;64597;42.664;23.256;2024-03-07T16:18:09;12.43;;;4.97;;
6527;SDS011;64597;42.664;23.256;2024-03-07T16:20:35;8.23;;;4.47;;
6527;SDS011;64597;42.664;23.256;2024-03-07T16:23:01;10.10;;;5.00;;
6527;SDS011;64597;42.664;23.256;2024-03-07T16:25:31;8.60;;;5.00;;
6527;SDS011;64597;42.664;23.256;2024-03-07T16:28:02;10.15;;;5.95;;
6527;SDS011;64597;42.664;23.256;2024-03-07T16:30:31;12.68;;;7.07;;
6527;SDS011;64597;42.664;23.256;2024-03-07T16:32:57;15.90;;;7.50;;
6527;SDS011;64597;42.664;23.256;2024-03-07T16:35:24;15.57;;;7.95;;
6527;SDS011;64597;42.664;23.256;2024-03-07T16:37:51;15.73;;;7.88;;
6527;SDS011;64597;42.664;23.256;2024-03-07T16:40:18;15.13;;;7.80;;
6527;SDS011;64597;42.664;23.256;2024-03-07T16:42:46;11.10;;;6.35;;
6527;SDS011;64597;42.664;23.256;2024-03-07T16:45:23;12.45;;;6.18;;
6527;SDS011;64597;42.664;23.256;2024-03-07T16:47:50;8.85;;;5.57;;
6527;SDS011;64597;42.664;23.256;2024-03-07T16:50:23;11.88;;;6.18;;
6527;SDS011;64597;42.664;23.256;2024-03-07T16:52:58;10.27;;;6.28;;
6527;SDS011;64597;42.664;23.256;2024-03-07T16:55:37;11.90;;;6.88;;
6527;SDS011;64597;42.664;23.256;2024-03-07T16:58:14;14.13;;;6.07;;
6527;SDS011;64597;42.664;23.256;2024-03-07T17:00:50;11.52;;;6.10;;
6527;SDS011;64597;42.664;23.256;2024-03-07T17:03:36;11.57;;;6.07;;
6527;SDS011;64597;42.664;23.256;2024-03-07T17:06:20;10.88;;;6.00;;
6527;SDS011;64597;42.664;23.256;2024-03-07T17:09:31;8.25;;;4.88;;
6527;SDS011;64597;42.664;23.256;2024-03-07T17:11:56;9.93;;;5.72;;
6527;SDS011;64597;42.664;23.256;2024-03-07T17:14:22;13.52;;;6.43;;
6527;SDS011;64597;42.664;23.256;2024-03-07T17:16:48;12.43;;;6.18;;
6527;SDS011;64597;42.664;23.256;2024-03-07T17:19:14;10.13;;;6.32;;
6527;SDS011;64597;42.664;23.256;2024-03-07T17:21:42;13.52;;;7.00;;
6527;SDS011;64597;42.664;23.256;2024-03-07T17:24:08;15.55;;;8.45;;
6527;SDS011;64597;42.664;23.256;2024-03-07T17:26:34;13.73;;;8.43;;
6527;SDS011;64597;42.664;23.256;2024-03-07T17:29:26;18.13;;;8.55;;
6527;SDS011;64597;42.664;23.256;2024-03-07T17:32:49;13.15;;;7.57;;
6527;SDS011;64597;42.664;23.256;2024-03-07T17:35:15;15.35;;;6.82;;
6527;SDS011;64597;42.664;23.256;2024-03-07T17:37:45;13.95;;;7.13;;
6527;SDS011;64597;42.664;23.256;2024-03-07T17:40:11;14.55;;;8.13;;
6527;SDS011;64597;42.664;23.256;2024-03-07T17:42:47;15.95;;;7.72;;
6527;SDS011;64597;42.664;23.256;2024-03-07T17:47:56;14.95;;;7.60;;
6527;SDS011;64597;42.664;23.256;2024-03-07T17:50:23;16.67;;;8.50;;
6527;SDS011;64597;42.664;23.256;2024-03-07T17:52:57;17.38;;;8.70;;
6527;SDS011;64597;42.664;23.256;2024-03-07T17:55:29;15.43;;;7.63;;
6527;SDS011;64597;42.664;23.256;2024-03-07T17:58:16;14.35;;;7.43;;
6527;SDS011;64597;42.664;23.256;2024-03-07T18:01:04;14.25;;;6.60;;
6527;SDS011;64597;42.664;23.256;2024-03-07T18:03:31;13.02;;;6.97;;
6527;SDS011;64597;42.664;23.256;2024-03-07T18:08:25;15.63;;;8.35;;
6527;SDS011;64597;42.664;23.256;2024-03-07T18:11:02;16.45;;;7.90;;
6527;SDS011;64597;42.664;23.256;2024-03-07T18:13:40;26.48;;;8.93;;
6527;SDS011;64597;42.664;23.256;2024-03-07T18:16:18;16.77;;;8.57;;
6527;SDS011;64597;42.664;23.256;2024-03-07T18:18:44;16.75;;;7.85;;
6527;SDS011;64597;42.664;23.256;2024-03-07T18:21:14;13.30;;;7.97;;
6527;SDS011;64597;42.664;23.256;2024-03-07T18:23:40;17.38;;;8.07;;
6527;SDS011;64597;42.664;23.256;2024-03-07T18:26:07;14.95;;;7.43;;
6527;SDS011;64597;42.664;23.256;2024-03-07T18:28:33;13.65;;;7.68;;
6527;SDS011;64597;42.664;23.256;2024-03-07T18:31:14;13.65;;;7.60;;
6527;SDS011;64597;42.664;23.256;2024-03-07T18:33:43;16.05;;;7.68;;
6527;SDS011;64597;42.664;23.256;2024-03-07T18:51:40;17.08;;;8.43;;
6527;SDS011;64597;42.664;23.256;2024-03-07T18:54:06;15.00;;;8.60;;
6527;SDS011;64597;42.664;23.256;2024-03-07T18:56:32;15.82;;;7.68;;
6527;SDS011;64597;42.664;23.256;2024-03-07T18:59:07;14.32;;;7.90;;
6527;SDS011;64597;42.664;23.256;2024-03-07T19:05:01;20.98;;;10.05;;
6527;SDS011;64597;42.664;23.256;2024-03-07T19:07:34;24.92;;;10.35;;
6527;SDS011;64597;42.664;23.256;2024-03-07T19:10:02;20.08;;;9.82;;
6527;SDS011;64597;42.664;23.256;2024-03-07T19:12:43;21.65;;;9.77;;
6527;SDS011;64597;42.664;23.256;2024-03-07T19:15:09;20.88;;;10.15;;
6527;SDS011;64597;42.664;23.256;2024-03-07T19:17:36;21.42;;;10.35;;
6527;SDS011;64597;42.664;23.256;2024-03-07T19:20:03;18.48;;;9.80;;
6527;SDS011;64597;42.664;23.256;2024-03-07T19:22:42;16.95;;;9.50;;
6527;SDS011;64597;42.664;23.256;2024-03-07T19:28:24;18.90;;;9.30;;
6527;SDS011;64597;42.664;23.256;2024-03-07T19:30:49;17.52;;;8.93;;
6527;SDS011;64597;42.664;23.256;2024-03-07T19:33:16;18.38;;;9.20;;
6527;SDS011;64597;42.664;23.256;2024-03-07T19:35:48;15.55;;;8.73;;
6527;SDS011;64597;42.664;23.256;2024-03-07T19:38:18;9.60;;;6.00;;
6527;SDS011;64597;42.664;23.256;2024-03-07T19:40:44;9.85;;;5.55;;
6527;SDS011;64597;42.664;23.256;2024-03-07T19:43:10;8.80;;;5.22;;
6527;SDS011;64597;42.664;23.256;2024-03-07T19:45:39;10.35;;;4.95;;
6527;SDS011;64597;42.664;23.256;2024-03-07T19:48:07;6.10;;;3.63;;
6527;SDS011;64597;42.664;23.256;2024-03-07T19:50:41;9.65;;;4.07;;
6527;SDS011;64597;42.664;23.256;2024-03-07T19:53:11;8.85;;;3.70;;
6527;SDS011;64597;42.664;23.256;2024-03-07T19:55:40;7.35;;;3.58;;
6527;SDS011;64597;42.664;23.256;2024-03-07T19:58:10;7.55;;;2.65;;
6527;SDS011;64597;42.664;23.256;2024-03-07T20:00:38;4.22;;;2.15;;
6527;SDS011;64597;42.664;23.256;2024-03-07T20:03:11;8.25;;;2.65;;
6527;SDS011;64597;42.664;23.256;2024-03-07T20:05:45;4.68;;;2.50;;
6527;SDS011;64597;42.664;23.256;2024-03-07T20:08:13;5.75;;;3.45;;
6527;SDS011;64597;42.664;23.256;2024-03-07T20:10:40;5.88;;;3.25;;
6527;SDS011;64597;42.664;23.256;2024-03-07T20:13:09;5.32;;;3.00;;
6527;SDS011;64597;42.664;23.256;2024-03-07T20:15:45;4.85;;;2.97;;
6527;SDS011;64597;42.664;23.256;2024-03-07T20:18:15;5.05;;;2.55;;
6527;SDS011;64597;42.664;23.256;2024-03-07T20:20:44;3.92;;;2.80;;
6527;SDS011;64597;42.664;23.256;2024-03-07T20:23:13;4.72;;;2.50;;
6527;SDS011;64597;42.664;23.256;2024-03-07T20:25:42;6.90;;;3.75;;
6527;SDS011;64597;42.664;23.256;2024-03-07T20:28:16;6.18;;;3.28;;
6527;SDS011;64597;42.664;23.256;2024-03-07T20:30:44;5.68;;;3.22;;
6527;SDS011;64597;42.664;23.256;2024-03-07T20:33:14;8.00;;;3.45;;
6527;SDS011;64597;42.664;23.256;2024-03-07T20:35:40;5.95;;;3.05;;
6527;SDS011;64597;42.664;23.256;2024-03-07T20:38:07;5.18;;;3.17;;
6527;SDS011;64597;42.664;23.256;2024-03-07T20:40:41;6.00;;;3.47;;
6527;SDS011;64597;42.664;23.256;2024-03-07T20:43:07;7.45;;;3.70;;
6527;SDS011;64597;42.664;23.256;2024-03-07T20:45:40;7.90;;;3.58;;
6527;SDS011;64597;42.664;23.256;2024-03-07T20:48:07;7.03;;;3.72;;
6527;SDS011;64597;42.664;23.256;2024-03-07T20:50:43;7.30;;;2.90;;
6527;SDS011;64597;42.664;23.256;2024-03-07T20:53:23;6.60;;;3.40;;
6527;SDS011;64597;42.664;23.256;2024-03-07T20:56:27;5.60;;;3.00;;
6527;SDS011;64597;42.664;23.256;2024-03-07T20:59:18;5.80;;;2.95;;
6527;SDS011;64597;42.664;23.256;2024-03-07T21:01:48;9.35;;;2.60;;
6527;SDS011;64597;42.664;23.256;2024-03-07T21:04:14;4.85;;;3.00;;
6527;SDS011;64597;42.664;23.256;2024-03-07T21:07:10;7.80;;;3.08;;
6527;SDS011;64597;42.664;23.256;2024-03-07T21:09:36;9.23;;;3.65;;
6527;SDS011;64597;42.664;23.256;2024-03-07T21:12:01;8.20;;;3.47;;
6527;SDS011;64597;42.664;23.256;2024-03-07T21:14:28;8.73;;;4.40;;
6527;SDS011;64597;42.664;23.256;2024-03-07T21:16:57;9.30;;;4.30;;
6527;SDS011;64597;42.664;23.256;2024-03-07T21:19:23;9.95;;;5.03;;
6527;SDS011;64597;42.664;23.256;2024-03-07T21:21:52;11.70;;;5.90;;
6527;SDS011;64597;42.664;23.256;2024-03-07T21:24:19;13.27;;;5.57;;
6527;SDS011;64597;42.664;23.256;2024-03-07T21:26:45;9.57;;;5.72;;
6527;SDS011;64597;42.664;23.256;2024-03-07T21:29:12;12.50;;;6.03;;
6527;SDS011;64597;42.664;23.256;2024-03-07T21:31:38;13.40;;;6.07;;
6527;SDS011;64597;42.664;23.256;2024-03-07T21:34:06;12.60;;;5.22;;
6527;SDS011;64597;42.664;23.256;2024-03-07T21:36:33;11.45;;;6.18;;
6527;SDS011;64597;42.664;23.256;2024-03-07T21:39:00;11.45;;;5.53;;
6527;SDS011;64597;42.664;23.256;2024-03-07T21:41:28;12.35;;;5.93;;
6527;SDS011;64597;42.664;23.256;2024-03-07T21:43:56;9.60;;;5.78;;
6527;SDS011;64597;42.664;23.256;2024-03-07T21:46:26;10.68;;;5.75;;
6527;SDS011;64597;42.664;23.256;2024-03-07T21:48:57;10.25;;;5.40;;
6527;SDS011;64597;42.664;23.256;2024-03-07T21:51:32;10.43;;;5.35;;
6527;SDS011;64597;42.664;23.256;2024-03-07T21:56:35;6.60;;;3.30;;
6527;SDS011;64597;42.664;23.256;2024-03-07T21:59:01;8.68;;;4.20;;
6527;SDS011;64597;42.664;23.256;2024-03-07T22:01:36;7.00;;;3.90;;
6527;SDS011;64597;42.664;23.256;2024-03-07T22:04:08;9.40;;;4.47;;
6527;SDS011;64597;42.664;23.256;2024-03-07T22:07:20;8.05;;;4.30;;
6527;SDS011;64597;42.664;23.256;2024-03-07T22:15:33;10.60;;;5.25;;
6527;SDS011;64597;42.664;23.256;2024-03-07T22:17:59;8.43;;;4.53;;
6527;SDS011;64597;42.664;23.256;2024-03-07T22:20:25;9.77;;;4.68;;
6527;SDS011;64597;42.664;23.256;2024-03-07T22:22:51;10.38;;;4.97;;